createdAt,value
2022-12-27T00:02:32.496Z,96549.97
2022-12-27T00:07:34.143Z,96565.50
2022-12-27T00:12:36.171Z,96581.72
2022-12-27T00:17:37.786Z,96582.03
2022-12-27T00:22:40.174Z,96577.22
2022-12-27T00:27:41.750Z,96585.09
2022-12-27T00:32:43.420Z,96602.75
2022-12-27T00:37:45.078Z,96604.13
2022-12-27T00:42:46.758Z,96595.81
2022-12-27T00:47:49.543Z,96607.28
2022-12-27T00:52:51.901Z,96604.97
2022-12-27T00:57:54.413Z,96620.38
2022-12-27T01:02:56.492Z,96621.50
2022-12-27T01:07:59.629Z,96626.03
2022-12-27T01:13:03.098Z,96617.00
2022-12-27T01:18:04.722Z,96627.63
2022-12-27T01:23:06.497Z,96636.09
2022-12-27T01:28:08.242Z,96635.00
2022-12-27T01:33:10.054Z,96637.75
2022-12-27T01:38:12.049Z,96654.59
2022-12-27T01:43:18.965Z,96666.09
2022-12-27T01:48:24.171Z,96663.06
2022-12-27T01:53:31.066Z,96667.56
2022-12-27T01:58:35.635Z,96677.25
2022-12-27T02:03:42.462Z,96677.34
2022-12-27T02:09:01.086Z,96691.16
2022-12-27T02:14:02.847Z,96691.69
2022-12-27T02:19:17.604Z,96691.38
2022-12-27T02:24:34.336Z,96698.44
2022-12-27T02:29:50.811Z,96688.13
2022-12-27T02:35:10.113Z,96688.00
2022-12-27T02:40:14.747Z,96697.81
2022-12-27T02:45:21.348Z,96708.34
2022-12-27T02:50:23.256Z,96710.97
2022-12-27T02:55:58.946Z,96716.00
2022-12-27T03:01:23.840Z,96728.97
2022-12-27T03:06:34.405Z,96735.19
2022-12-27T03:11:48.268Z,96734.44
2022-12-27T03:16:59.791Z,96740.69
2022-12-27T03:22:02.697Z,96751.63
2022-12-27T03:27:11.022Z,96754.38
2022-12-27T03:32:15.752Z,96759.19
2022-12-27T03:37:30.217Z,96766.69
2022-12-27T03:42:36.093Z,96771.09
2022-12-27T03:48:02.282Z,96776.22
2022-12-27T03:53:25.102Z,96777.97
2022-12-27T03:58:26.792Z,96783.38
2022-12-27T04:03:28.477Z,96780.75
2022-12-27T04:08:30.064Z,96783.59
2022-12-27T04:13:31.620Z,96779.25
2022-12-27T04:18:33.245Z,96791.94
2022-12-27T04:23:34.892Z,96788.69
2022-12-27T04:28:36.893Z,96775.19
2022-12-27T04:33:38.471Z,96782.44
2022-12-27T04:38:40.065Z,96773.84
2022-12-27T04:43:41.811Z,96785.06
2022-12-27T04:48:43.506Z,96785.41
2022-12-27T04:53:45.483Z,96781.97
2022-12-27T04:58:46.980Z,96783.28
2022-12-27T05:03:50.651Z,96792.66
2022-12-27T05:08:52.335Z,96791.81
2022-12-27T05:13:53.954Z,96784.47
2022-12-27T05:18:55.741Z,96791.50
2022-12-27T05:24:03.351Z,96784.38
2022-12-27T05:29:08.118Z,96789.78
2022-12-27T05:34:09.748Z,96793.50
2022-12-27T05:39:11.324Z,96794.97
2022-12-27T05:44:12.898Z,96805.16
2022-12-27T05:49:14.696Z,96809.41
2022-12-27T05:54:16.467Z,96811.94
2022-12-27T05:59:17.990Z,96803.28
2022-12-27T06:04:19.509Z,96808.91
2022-12-27T06:09:21.203Z,96810.16
2022-12-27T06:14:22.730Z,96818.31
2022-12-27T06:19:24.244Z,96808.00
2022-12-27T06:24:25.786Z,96819.69
2022-12-27T06:29:27.258Z,96824.78
2022-12-27T06:34:28.792Z,96836.59
2022-12-27T06:39:30.643Z,96834.38
2022-12-27T06:44:32.171Z,96844.75
2022-12-27T06:49:33.737Z,96847.09
2022-12-27T06:54:35.334Z,96839.81
2022-12-27T06:59:36.925Z,96852.97
2022-12-27T07:04:38.406Z,96849.81
2022-12-27T07:09:40.015Z,96856.59
2022-12-27T07:14:41.564Z,96852.78
2022-12-27T07:19:43.085Z,96863.94
2022-12-27T07:24:44.674Z,96870.91
2022-12-27T07:29:46.295Z,96868.03
2022-12-27T07:34:47.820Z,96860.06
2022-12-27T07:39:49.413Z,96861.19
2022-12-27T07:44:50.933Z,96878.94
2022-12-27T07:49:52.403Z,96881.50
2022-12-27T07:54:53.907Z,96884.88
2022-12-27T07:59:55.391Z,96882.25
2022-12-27T08:04:57.005Z,96888.38
2022-12-27T08:09:58.492Z,96892.88
2022-12-27T08:15:00.011Z,96901.69
2022-12-27T08:20:01.572Z,96898.19
2022-12-27T08:25:03.115Z,96895.31
2022-12-27T08:30:05.524Z,96892.59
2022-12-27T08:35:41.803Z,96885.03
2022-12-27T08:40:28.917Z,96884.38
2022-12-27T08:45:30.440Z,96884.56
2022-12-27T08:50:31.967Z,96896.31
2022-12-27T08:55:33.766Z,96883.94
2022-12-27T09:00:35.271Z,96894.66
2022-12-27T09:05:41.636Z,96902.00
2022-12-27T09:10:43.693Z,96897.72
2022-12-27T09:15:45.296Z,96895.06
2022-12-27T09:20:46.792Z,96899.75
2022-12-27T09:25:48.342Z,96897.28
2022-12-27T09:30:50.107Z,96902.44
2022-12-27T09:35:51.842Z,96914.44
2022-12-27T09:40:55.812Z,96913.78
2022-12-27T09:45:58.306Z,96916.66
2022-12-27T09:51:06.142Z,96921.31
2022-12-27T09:56:11.733Z,96920.03
2022-12-27T10:01:27.416Z,96914.59
2022-12-27T10:06:57.621Z,96916.25
2022-12-27T10:12:14.371Z,96901.03
2022-12-27T10:17:48.077Z,96899.19
2022-12-27T10:23:06.473Z,96903.66
2022-12-27T10:28:23.295Z,96894.25
2022-12-27T10:33:31.138Z,96899.25
2022-12-27T10:38:34.516Z,96892.22
2022-12-27T10:43:40.947Z,96896.97
2022-12-27T10:54:27.450Z,96898.19
2022-12-27T10:59:29.293Z,96889.53
2022-12-27T11:04:32.357Z,96880.84
2022-12-27T11:09:38.632Z,96880.34
2022-12-27T11:14:59.400Z,96885.78
2022-12-27T11:20:18.784Z,96880.72
2022-12-27T11:25:21.447Z,96884.84
2022-12-27T11:30:31.109Z,96884.47
2022-12-27T11:35:33.938Z,96876.28
2022-12-27T11:40:35.576Z,96858.41
2022-12-27T11:45:46.759Z,96861.09
2022-12-27T11:51:03.884Z,96847.72
2022-12-27T11:56:30.585Z,96846.53
2022-12-27T12:02:08.127Z,96845.34
2022-12-27T12:07:28.624Z,96840.34
2022-12-27T12:12:42.312Z,96841.16
2022-12-27T12:18:08.245Z,96841.28
2022-12-27T12:23:35.936Z,96836.44
2022-12-27T12:28:59.087Z,96832.84
2022-12-27T12:34:19.527Z,96833.91
2022-12-27T12:39:39.847Z,96823.69
2022-12-27T12:44:56.614Z,96829.84
2022-12-27T12:50:23.936Z,96825.66
2022-12-27T12:55:25.626Z,96816.69
2022-12-27T13:01:05.622Z,96806.91
2022-12-27T13:06:44.795Z,96812.34
2022-12-27T13:12:02.172Z,96815.13
2022-12-27T13:17:19.825Z,96816.19
2022-12-27T13:23:07.452Z,96803.53
2022-12-27T13:29:03.388Z,96806.91
2022-12-27T13:34:36.445Z,96804.03
2022-12-27T13:40:29.156Z,96811.03
2022-12-27T13:45:48.494Z,96810.47
2022-12-27T13:51:13.069Z,96807.31
2022-12-27T13:56:54.101Z,96801.22
2022-12-27T14:02:20.583Z,96816.91
2022-12-27T14:07:25.113Z,96815.88
2022-12-27T14:12:44.967Z,96822.19
2022-12-27T14:18:03.747Z,96815.13
2022-12-27T14:23:26.081Z,96802.56
2022-12-27T14:29:00.169Z,96807.22
2022-12-27T14:34:28.128Z,96807.31
2022-12-27T14:39:56.921Z,96816.06
2022-12-27T14:45:17.253Z,96813.94
2022-12-27T14:50:34.036Z,96812.91
2022-12-27T14:55:41.842Z,96813.22
2022-12-27T15:01:14.190Z,96819.75
2022-12-27T15:06:51.751Z,96803.91
2022-12-27T15:12:23.755Z,96806.69
2022-12-27T15:17:36.909Z,96813.41
2022-12-27T15:22:56.174Z,96814.47
2022-12-27T15:28:00.332Z,96819.09
2022-12-27T15:33:13.828Z,96808.53
2022-12-27T15:38:18.628Z,96810.13
2022-12-27T15:43:36.276Z,96787.25
2022-12-27T15:49:05.347Z,96795.16
2022-12-27T15:54:27.867Z,96791.47
2022-12-27T16:00:07.930Z,96789.03
2022-12-27T16:05:23.016Z,96782.59
2022-12-27T16:10:30.744Z,96781.16
2022-12-27T16:15:39.348Z,96767.31
2022-12-27T16:20:40.952Z,96768.72
2022-12-27T16:25:43.266Z,96758.88
2022-12-27T16:30:48.620Z,96748.16
2022-12-27T16:36:04.843Z,96750.56
2022-12-27T16:41:24.915Z,96759.22
2022-12-27T16:46:52.081Z,96752.66
2022-12-27T16:52:06.919Z,96749.59
2022-12-27T16:57:37.674Z,96747.59
2022-12-27T17:02:46.020Z,96737.84
2022-12-27T17:07:52.988Z,96744.25
2022-12-27T17:13:00.037Z,96741.84
2022-12-27T17:18:16.291Z,96734.84
2022-12-27T17:23:18.069Z,96728.41
2022-12-27T17:28:35.580Z,96731.75
2022-12-27T17:34:09.488Z,96730.50
2022-12-27T17:39:13.722Z,96726.00
2022-12-27T17:44:27.301Z,96729.50
2022-12-27T17:49:31.116Z,96718.38
2022-12-27T17:54:32.665Z,96712.44
2022-12-27T17:59:34.568Z,96707.13
2022-12-27T18:04:39.323Z,96700.75
2022-12-27T18:09:47.098Z,96705.47
2022-12-27T18:15:00.813Z,96708.84
2022-12-27T18:20:28.791Z,96709.59
2022-12-27T18:25:40.224Z,96713.47
2022-12-27T18:30:47.637Z,96712.38
2022-12-27T18:35:51.117Z,96705.63
2022-12-27T18:41:02.986Z,96708.09
2022-12-27T18:46:05.124Z,96707.38
2022-12-27T18:51:06.836Z,96695.06
2022-12-27T18:56:14.142Z,96693.56
2022-12-27T19:01:32.659Z,96703.41
2022-12-27T19:06:34.268Z,96706.31
2022-12-27T19:11:36.797Z,96699.59
2022-12-27T19:16:38.370Z,96695.81
2022-12-27T19:21:39.953Z,96703.38
2022-12-27T19:26:41.504Z,96705.34
2022-12-27T19:31:52.874Z,96703.78
2022-12-27T19:36:55.627Z,96704.63
2022-12-27T19:42:01.066Z,96692.41
2022-12-27T19:47:03.540Z,96690.59
2022-12-27T19:52:05.485Z,96696.94
2022-12-27T19:57:10.398Z,96694.41
2022-12-27T20:02:12.209Z,96687.66
2022-12-27T20:07:21.611Z,96680.81
2022-12-27T20:12:23.209Z,96688.22
2022-12-27T20:17:24.703Z,96688.38
2022-12-27T20:22:26.480Z,96686.38
2022-12-27T20:27:28.058Z,96689.94
2022-12-27T20:32:29.645Z,96680.94
2022-12-27T20:37:31.312Z,96675.34
2022-12-27T20:42:33.277Z,96670.81
2022-12-27T20:47:35.055Z,96649.38
2022-12-27T20:52:37.139Z,96643.38
2022-12-27T20:57:39.386Z,96638.88
2022-12-27T21:02:40.992Z,96631.94
2022-12-27T21:07:42.642Z,96630.09
2022-12-27T21:12:44.207Z,96634.88
2022-12-27T21:17:45.682Z,96634.34
2022-12-27T21:22:47.624Z,96635.81
2022-12-27T21:27:49.172Z,96620.75
2022-12-27T21:32:50.777Z,96616.25
2022-12-27T21:37:52.502Z,96620.72
2022-12-27T21:42:54.016Z,96608.91
2022-12-27T21:47:55.549Z,96616.00
2022-12-27T21:52:57.074Z,96620.34
2022-12-27T21:57:58.667Z,96606.28
2022-12-27T22:03:00.308Z,96600.66
2022-12-27T22:08:01.927Z,96594.25
2022-12-27T22:13:03.439Z,96604.28
2022-12-27T22:18:04.983Z,96593.94
2022-12-27T22:23:06.524Z,96599.66
2022-12-27T22:28:08.003Z,96607.03
2022-12-27T22:33:09.507Z,96610.13
2022-12-27T22:38:11.224Z,96609.00
2022-12-27T22:43:12.750Z,96605.91
2022-12-27T22:48:14.279Z,96601.41
2022-12-27T22:53:15.786Z,96601.41
2022-12-27T22:58:17.415Z,96607.97
2022-12-27T23:03:19.041Z,96602.72
2022-12-27T23:08:20.718Z,96605.34
2022-12-27T23:13:22.322Z,96599.91
2022-12-27T23:18:24.392Z,96590.91
2022-12-27T23:23:26.003Z,96583.97
2022-12-27T23:28:27.493Z,96593.94
2022-12-27T23:33:29.081Z,96590.16
2022-12-27T23:38:30.891Z,96596.16
2022-12-27T23:43:51.796Z,96592.97
2022-12-27T23:48:56.369Z,96585.00
2022-12-27T23:53:58.085Z,96589.34
2022-12-27T23:59:01.947Z,96578.72
